^^
Datos históricos de la estación: Murcia-Puente Tocinos
Diario Informe para Mayo 24, 2019 Unidades:  Ambas    Inglés   Métrico
Diario Semanal Mensual Anual Configurable
  Máximo: Mínimo: Media:
Temperatura: 74.8 °F /  23.8 °C 61.3 °F /  16.3 °C 66.7 °F /  19.3 °C
Punto de rocio: 61.3 °F /  16.3 °C 46.6 °F /  8.1 °C 55.6 °F /  13.1 °C
Humedad: 86% 37% 69%
Velocidad viento: 18.1mph /  29.1km/h - 6mph /  9.7km/h
Racha viento: 26.5mph /  42.6km/h - -
Viento- - ESE
Presión: 29.9 in /  1014.1 hPa 29.8 in /  1010.5 hPa -
Precipitación: 0.13 in /  3.3 mm    
Historical Graphs
 
 
Tabla de datos para Mayo 24, 2019
Hora Temperatura Punto de rocio Presión Viento Velocidad viento Racha viento Humedad Intensidad lluvia(por hora) Nubes
00:04 67.3 °F /  19.6 °C 61 °F /  16.1 °C 29.9in /  1013.3hPa ENE 5.9mph /  9.5km/h 8.7mph /  14.0km/h 80% 0in /  0.0mm CLR
00:09 66.9 °F /  19.4 °C 61 °F /  16.1 °C 29.9in /  1013.3hPa NNE 6.2mph /  10.0km/h 8.1mph /  13.0km/h 81% 0in /  0.0mm CLR
00:14 66.7 °F /  19.3 °C 61.2 °F /  16.2 °C 29.9in /  1013.3hPa NNE 6.2mph /  10.0km/h 10.4mph /  16.7km/h 82% 0in /  0.0mm CLR
00:19 66.6 °F /  19.2 °C 61 °F /  16.1 °C 29.9in /  1013.2hPa ENE 6.9mph /  11.1km/h 11.5mph /  18.5km/h 82% 0in /  0.0mm CLR
00:24 66.6 °F /  19.2 °C 61.2 °F /  16.2 °C 29.9in /  1013.2hPa NNE 6.9mph /  11.1km/h 7.6mph /  12.2km/h 83% 0in /  0.0mm CLR
00:29 66.4 °F /  19.1 °C 61.2 °F /  16.2 °C 29.9in /  1013.2hPa NNE 6.2mph /  10.0km/h 10.4mph /  16.7km/h 83% 0in /  0.0mm CLR
00:34 66.4 °F /  19.1 °C 61.2 °F /  16.2 °C 29.9in /  1013.4hPa NNE 6.2mph /  10.0km/h 9.2mph /  14.8km/h 83% 0in /  0.0mm CLR
00:39 66.2 °F /  19.0 °C 61 °F /  16.1 °C 29.9in /  1013.4hPa NNE 5.9mph /  9.5km/h 6.9mph /  11.1km/h 83% 0in /  0.0mm CLR
00:44 66 °F /  18.9 °C 60.6 °F /  15.9 °C 29.9in /  1013.4hPa NNE 5.9mph /  9.5km/h 5.8mph /  9.3km/h 83% 0in /  0.0mm CLR
00:49 66 °F /  18.9 °C 61 °F /  16.1 °C 29.9in /  1013.3hPa NE 4.7mph /  7.6km/h 6.9mph /  11.1km/h 84% 0in /  0.0mm CLR
00:54 66 °F /  18.9 °C 61 °F /  16.1 °C 29.9in /  1013.3hPa North 4.7mph /  7.6km/h 6.9mph /  11.1km/h 84% 0in /  0.0mm CLR
00:59 66 °F /  18.9 °C 61 °F /  16.1 °C 29.9in /  1013.3hPa NNE 4.3mph /  6.9km/h 6.9mph /  11.1km/h 84% 0in /  0.0mm CLR
01:04 65.8 °F /  18.8 °C 61 °F /  16.1 °C 29.9in /  1013.2hPa NNE 4.3mph /  6.9km/h 6.9mph /  11.1km/h 84% 0in /  0.0mm CLR
01:09 65.8 °F /  18.8 °C 61 °F /  16.1 °C 29.9in /  1013.2hPa NNE 5.2mph /  8.4km/h 6.9mph /  11.1km/h 84% 0in /  0.0mm CLR
01:14 65.8 °F /  18.8 °C 61 °F /  16.1 °C 29.9in /  1013.2hPa NNE 5.2mph /  8.4km/h 6.9mph /  11.1km/h 84% 0in /  0.0mm CLR
01:19 65.7 °F /  18.7 °C 60.6 °F /  15.9 °C 29.9in /  1013.1hPa NNE 4.7mph /  7.6km/h 8.1mph /  13.0km/h 84% 0in /  0.0mm CLR
01:24 65.7 °F /  18.7 °C 61 °F /  16.1 °C 29.9in /  1013.1hPa NNE 4.7mph /  7.6km/h 6.9mph /  11.1km/h 85% 0in /  0.0mm CLR
01:29 65.7 °F /  18.7 °C 61 °F /  16.1 °C 29.9in /  1013.1hPa ENE 5.4mph /  8.7km/h 8.1mph /  13.0km/h 85% 0in /  0.0mm CLR
01:34 65.5 °F /  18.6 °C 60.8 °F /  16.0 °C 29.9in /  1013.0hPa North 5.4mph /  8.7km/h 6.9mph /  11.1km/h 85% 0in /  0.0mm CLR
01:39 65.7 °F /  18.7 °C 61 °F /  16.1 °C 29.9in /  1013.0hPa NNE 4.7mph /  7.6km/h 6.9mph /  11.1km/h 85% 0in /  0.0mm CLR
01:44 65.7 °F /  18.7 °C 60.6 °F /  15.9 °C 29.9in /  1013.0hPa North 4.7mph /  7.6km/h 5.8mph /  9.3km/h 84% 0in /  0.0mm CLR
01:49 65.7 °F /  18.7 °C 60.6 °F /  15.9 °C 29.9in /  1012.7hPa NE 4.7mph /  7.6km/h 5.2mph /  8.4km/h 84% 0in /  0.0mm CLR
01:54 65.5 °F /  18.6 °C 60.8 °F /  16.0 °C 29.9in /  1012.7hPa ENE 4.7mph /  7.6km/h 5.8mph /  9.3km/h 85% 0in /  0.0mm CLR
01:59 65.5 °F /  18.6 °C 60.8 °F /  16.0 °C 29.9in /  1012.7hPa NE 3.1mph /  5.0km/h 3.5mph /  5.6km/h 85% 0in /  0.0mm CLR
02:04 65.5 °F /  18.6 °C 60.8 °F /  16.0 °C 29.9in /  1012.6hPa NE 3.1mph /  5.0km/h 4.6mph /  7.4km/h 85% 0in /  0.0mm CLR
02:09 65.3 °F /  18.5 °C 60.6 °F /  15.9 °C 29.9in /  1012.6hPa NE 2.9mph /  4.7km/h 3.6mph /  5.8km/h 85% 0in /  0.0mm CLR
02:14 65.3 °F /  18.5 °C 61 °F /  16.1 °C 29.9in /  1012.6hPa NE 2.9mph /  4.7km/h 3.5mph /  5.6km/h 86% 0in /  0.0mm CLR
02:19 65.1 °F /  18.4 °C 60.8 °F /  16.0 °C 29.9in /  1012.4hPa NE 2.9mph /  4.7km/h 4.6mph /  7.4km/h 86% 0in /  0.0mm CLR
02:24 65.1 °F /  18.4 °C 60.8 °F /  16.0 °C 29.9in /  1012.4hPa ENE 2.9mph /  4.7km/h 4mph /  6.4km/h 86% 0in /  0.0mm CLR
02:29 65.1 °F /  18.4 °C 60.8 °F /  16.0 °C 29.9in /  1012.4hPa ENE 2.9mph /  4.7km/h 4.6mph /  7.4km/h 86% 0in /  0.0mm CLR
02:34 64.9 °F /  18.3 °C 60.3 °F /  15.7 °C 29.9in /  1012.0hPa East 2.9mph /  4.7km/h 4.6mph /  7.4km/h 85% 0in /  0.0mm CLR
02:39 64.9 °F /  18.3 °C 60.3 °F /  15.7 °C 29.9in /  1012.0hPa East 2mph /  3.2km/h   85% 0in /  0.0mm CLR
02:44 64.9 °F /  18.3 °C 60.3 °F /  15.7 °C 29.9in /  1012.0hPa NW 2mph /  3.2km/h 2.9mph /  4.7km/h 85% 0in /  0.0mm CLR
02:49 64.9 °F /  18.3 °C 60.3 °F /  15.7 °C 29.9in /  1012.1hPa NW 1.4mph /  2.3km/h 4.6mph /  7.4km/h 85% 0in /  0.0mm CLR
02:54 64.9 °F /  18.3 °C 60.1 °F /  15.6 °C 29.9in /  1012.1hPa NW 1.4mph /  2.3km/h 2.3mph /  3.7km/h 84% 0in /  0.0mm CLR
02:59 64.9 °F /  18.3 °C 60.1 °F /  15.6 °C 29.9in /  1012.1hPa North 1.4mph /  2.3km/h 3.5mph /  5.6km/h 84% 0in /  0.0mm CLR
03:04 64.9 °F /  18.3 °C 60.1 °F /  15.6 °C 29.9in /  1011.8hPa North 1.4mph /  2.3km/h 3.5mph /  5.6km/h 84% 0in /  0.0mm CLR
03:09 64.9 °F /  18.3 °C 60.3 °F /  15.7 °C 29.9in /  1011.8hPa North 2mph /  3.2km/h 2.4mph /  3.9km/h 85% 0in /  0.0mm CLR
03:14 64.9 °F /  18.3 °C 60.3 °F /  15.7 °C 29.9in /  1011.8hPa North 2mph /  3.2km/h   85% 0in /  0.0mm CLR
03:19 64.9 °F /  18.3 °C 60.3 °F /  15.7 °C 29.9in /  1011.8hPa Calm     85% 0in /  0.0mm CLR
03:24 64.9 °F /  18.3 °C 60.3 °F /  15.7 °C 29.9in /  1011.8hPa Calm     85% 0in /  0.0mm CLR
03:29 64.9 °F /  18.3 °C 60.3 °F /  15.7 °C 29.9in /  1011.8hPa Calm     85% 0in /  0.0mm CLR
03:34 64.9 °F /  18.3 °C 60.3 °F /  15.7 °C 29.9in /  1011.8hPa Calm     85% 0in /  0.0mm CLR
03:39 64.9 °F /  18.3 °C 60.3 °F /  15.7 °C 29.9in /  1011.8hPa Calm     85% 0in /  0.0mm CLR
03:44 64.8 °F /  18.2 °C 59.7 °F /  15.4 °C 29.9in /  1011.8hPa Calm     84% 0in /  0.0mm CLR
03:49 64.6 °F /  18.1 °C 59.4 °F /  15.2 °C 29.9in /  1011.5hPa Calm     83% 0in /  0.0mm CLR
03:54 64.6 °F /  18.1 °C 59.4 °F /  15.2 °C 29.9in /  1011.5hPa Calm     83% 0in /  0.0mm CLR
03:59 64.6 °F /  18.1 °C 59.4 °F /  15.2 °C 29.9in /  1011.5hPa Calm     83% 0in /  0.0mm CLR
04:04 64.4 °F /  18.0 °C 59.2 °F /  15.1 °C 29.9in /  1011.3hPa Calm     83% 0in /  0.0mm CLR
04:09 64.2 °F /  17.9 °C 58.6 °F /  14.8 °C 29.9in /  1011.3hPa Calm   3.6mph /  5.8km/h 82% 0in /  0.0mm CLR
04:14 64 °F /  17.8 °C 58.8 °F /  14.9 °C 29.9in /  1011.3hPa Calm     83% 0in /  0.0mm CLR
04:19 63.9 °F /  17.7 °C 58.3 °F /  14.6 °C 29.9in /  1011.3hPa Calm     82% 0in /  0.0mm CLR
04:24 63.9 °F /  17.7 °C 58.6 °F /  14.8 °C 29.9in /  1011.3hPa Calm     83% 0in /  0.0mm CLR
04:29 63.9 °F /  17.7 °C 58.6 °F /  14.8 °C 29.9in /  1011.3hPa Calm     83% 0in /  0.0mm CLR
04:34 63.7 °F /  17.6 °C 58.5 °F /  14.7 °C 29.9in /  1011.2hPa Calm     83% 0in /  0.0mm CLR
04:39 63.7 °F /  17.6 °C 58.5 °F /  14.7 °C 29.9in /  1011.2hPa Calm     83% 0in /  0.0mm CLR
04:44 63.7 °F /  17.6 °C 58.1 °F /  14.5 °C 29.9in /  1011.2hPa Calm   3.5mph /  5.6km/h 82% 0in /  0.0mm CLR
04:49 63.7 °F /  17.6 °C 57.7 °F /  14.3 °C 29.9in /  1011.2hPa ESE 1.8mph /  2.9km/h 3.5mph /  5.6km/h 81% 0in /  0.0mm CLR
04:54 63.9 °F /  17.7 °C 57.9 °F /  14.4 °C 29.9in /  1011.2hPa ESE 1.8mph /  2.9km/h 4mph /  6.4km/h 81% 0in /  0.0mm CLR
04:59 63.9 °F /  17.7 °C 57.9 °F /  14.4 °C 29.9in /  1011.2hPa South 2mph /  3.2km/h 3.5mph /  5.6km/h 81% 0in /  0.0mm CLR
05:04 63.9 °F /  17.7 °C 57.6 °F /  14.2 °C 29.9in /  1011.2hPa South 2mph /  3.2km/h 2.4mph /  3.9km/h 80% 0in /  0.0mm CLR
05:09 63.9 °F /  17.7 °C 57.6 °F /  14.2 °C 29.9in /  1011.2hPa South 2mph /  3.2km/h 2.3mph /  3.7km/h 80% 0in /  0.0mm CLR
05:14 64 °F /  17.8 °C 58.1 °F /  14.5 °C 29.9in /  1011.2hPa South 2mph /  3.2km/h   81% 0in /  0.0mm CLR
05:19 64 °F /  17.8 °C 57.7 °F /  14.3 °C 29.9in /  1011.0hPa SE 1.4mph /  2.3km/h 4mph /  6.4km/h 80% 0in /  0.0mm CLR
05:24 64.2 °F /  17.9 °C 57.2 °F /  14.0 °C 29.9in /  1011.0hPa South 1.4mph /  2.3km/h 4.3mph /  6.9km/h 78% 0in /  0.0mm CLR
05:29 64.2 °F /  17.9 °C 57.2 °F /  14.0 °C 29.9in /  1011.0hPa South 3.1mph /  5.0km/h 4.6mph /  7.4km/h 78% 0in /  0.0mm CLR
05:34 64.2 °F /  17.9 °C 57.2 °F /  14.0 °C 29.9in /  1010.8hPa SE 3.1mph /  5.0km/h 5.8mph /  9.3km/h 78% 0in /  0.0mm CLR
05:39 64.2 °F /  17.9 °C 56.8 °F /  13.8 °C 29.9in /  1010.8hPa South 3.6mph /  5.8km/h 4.6mph /  7.4km/h 77% 0in /  0.0mm CLR
05:44 64.2 °F /  17.9 °C 56.8 °F /  13.8 °C 29.9in /  1010.8hPa South 3.6mph /  5.8km/h 3.5mph /  5.6km/h 77% 0in /  0.0mm CLR
05:49 64.2 °F /  17.9 °C 56.8 °F /  13.8 °C 29.9in /  1010.9hPa South 1.8mph /  2.9km/h   77% 0in /  0.0mm CLR
05:54 64.2 °F /  17.9 °C 56.8 °F /  13.8 °C 29.9in /  1010.9hPa South 1.8mph /  2.9km/h   77% 0in /  0.0mm CLR
05:59 64.2 °F /  17.9 °C 56.8 °F /  13.8 °C 29.9in /  1010.9hPa Calm     77% 0in /  0.0mm CLR
06:04 64 °F /  17.8 °C 56.7 °F /  13.7 °C 29.9in /  1010.8hPa Calm   2.3mph /  3.7km/h 77% 0in /  0.0mm CLR
06:09 63.7 °F /  17.6 °C 57 °F /  13.9 °C 29.9in /  1010.8hPa WNW 1.4mph /  2.3km/h 4mph /  6.4km/h 79% 0in /  0.0mm CLR
06:14 63.3 °F /  17.4 °C 57 °F /  13.9 °C 29.9in /  1010.8hPa WNW 1.4mph /  2.3km/h   80% 0in /  0.0mm CLR
06:19 63.1 °F /  17.3 °C 57.2 °F /  14.0 °C 29.9in /  1010.8hPa NW 1.4mph /  2.3km/h 4.6mph /  7.4km/h 81% 0in /  0.0mm CLR
06:24 63 °F /  17.2 °C 57.4 °F /  14.1 °C 29.9in /  1010.8hPa NW 1.4mph /  2.3km/h 3.6mph /  5.8km/h 82% 0in /  0.0mm CLR
06:29 62.6 °F /  17.0 °C 57.4 °F /  14.1 °C 29.9in /  1010.8hPa NW 2.4mph /  3.9km/h 2.3mph /  3.7km/h 83% 0in /  0.0mm CLR
06:34 62.4 °F /  16.9 °C 57.2 °F /  14.0 °C 29.9in /  1010.8hPa NW 2.4mph /  3.9km/h   83% 0in /  0.0mm CLR
06:39 62.2 °F /  16.8 °C 57 °F /  13.9 °C 29.9in /  1010.8hPa Calm     83% 0in /  0.0mm CLR
06:44 62.2 °F /  16.8 °C 57.4 °F /  14.1 °C 29.9in /  1010.8hPa Calm     84% 0in /  0.0mm CLR
06:49 62.2 °F /  16.8 °C 57.4 °F /  14.1 °C 29.8in /  1010.6hPa Calm     84% 0in /  0.0mm CLR
06:54 62.2 °F /  16.8 °C 56.3 °F /  13.5 °C 29.8in /  1010.6hPa Calm     81% 0in /  0.0mm CLR
06:59 62.2 °F /  16.8 °C 56.3 °F /  13.5 °C 29.8in /  1010.6hPa Calm     81% 0in /  0.0mm CLR
07:04 62.2 °F /  16.8 °C 55.9 °F /  13.3 °C 29.9in /  1010.8hPa Calm     80% 0in /  0.0mm CLR
07:09 62.2 °F /  16.8 °C 56.3 °F /  13.5 °C 29.9in /  1010.8hPa Calm   2.3mph /  3.7km/h 81% 0in /  0.0mm CLR
07:14 62.4 °F /  16.9 °C 56.1 °F /  13.4 °C 29.9in /  1010.8hPa Calm     80% 0in /  0.0mm CLR
07:19 62.6 °F /  17.0 °C 55.9 °F /  13.3 °C 29.9in /  1010.8hPa Calm   4mph /  6.4km/h 79% 0in /  0.0mm CLR
07:24 62.8 °F /  17.1 °C 55.8 °F /  13.2 °C 29.9in /  1010.8hPa Calm   4.6mph /  7.4km/h 78% 0in /  0.0mm CLR
07:29 63.1 °F /  17.3 °C 56.1 °F /  13.4 °C 29.9in /  1010.8hPa SSW 2.9mph /  4.7km/h 2.3mph /  3.7km/h 78% 0in /  0.0mm CLR
07:34 63.3 °F /  17.4 °C 56.3 °F /  13.5 °C 29.9in /  1010.9hPa SSW 2.9mph /  4.7km/h 3.5mph /  5.6km/h 78% 0in /  0.0mm CLR
07:39 63.5 °F /  17.5 °C 56.1 °F /  13.4 °C 29.9in /  1010.9hPa SSW 1.4mph /  2.3km/h 2.3mph /  3.7km/h 77% 0in /  0.0mm CLR
07:44 63.7 °F /  17.6 °C 55.6 °F /  13.1 °C 29.9in /  1010.9hPa SE 1.4mph /  2.3km/h 3.5mph /  5.6km/h 75% 0in /  0.0mm CLR
07:49 63.7 °F /  17.6 °C 55.2 °F /  12.9 °C 29.9in /  1010.8hPa SE 2mph /  3.2km/h 3.5mph /  5.6km/h 74% 0in /  0.0mm CLR
07:54 63.7 °F /  17.6 °C 55.2 °F /  12.9 °C 29.9in /  1010.8hPa SE 2mph /  3.2km/h 4.6mph /  7.4km/h 74% 0in /  0.0mm CLR
07:59 63.5 °F /  17.5 °C 55 °F /  12.8 °C 29.9in /  1010.8hPa SSE 2.4mph /  3.9km/h 4.6mph /  7.4km/h 74% 0in /  0.0mm CLR
08:04 63.5 °F /  17.5 °C 55 °F /  12.8 °C 29.9in /  1010.8hPa South 2.4mph /  3.9km/h 4.6mph /  7.4km/h 74% 0in /  0.0mm CLR
08:09 63.5 °F /  17.5 °C 55 °F /  12.8 °C 29.9in /  1010.8hPa SE 3.1mph /  5.0km/h 4.6mph /  7.4km/h 74% 0in /  0.0mm CLR
08:14 63.5 °F /  17.5 °C 55 °F /  12.8 °C 29.9in /  1010.8hPa ESE 3.1mph /  5.0km/h 4.6mph /  7.4km/h 74% 0in /  0.0mm CLR
08:19 63.9 °F /  17.7 °C 55.8 °F /  13.2 °C 29.8in /  1010.6hPa SE 3.6mph /  5.8km/h 4.6mph /  7.4km/h 75% 0in /  0.0mm CLR
08:24 64 °F /  17.8 °C 55.6 °F /  13.1 °C 29.8in /  1010.6hPa ESE 3.6mph /  5.8km/h 3.5mph /  5.6km/h 74% 0in /  0.0mm CLR
08:29 64 °F /  17.8 °C 55.9 °F /  13.3 °C 29.8in /  1010.6hPa SE 3.1mph /  5.0km/h 4.6mph /  7.4km/h 75% 0in /  0.0mm CLR
08:34 64 °F /  17.8 °C 55.9 °F /  13.3 °C 29.9in /  1010.8hPa SE 3.1mph /  5.0km/h 3.5mph /  5.6km/h 75% 0in /  0.0mm CLR
08:39 64.2 °F /  17.9 °C 56.1 °F /  13.4 °C 29.9in /  1010.8hPa SE 2mph /  3.2km/h 2.4mph /  3.9km/h 75% 0in /  0.0mm CLR
08:44 64.2 °F /  17.9 °C 56.1 °F /  13.4 °C 29.9in /  1010.8hPa SE 2mph /  3.2km/h 3.5mph /  5.6km/h 75% 0in /  0.0mm CLR
08:49 64.6 °F /  18.1 °C 56.8 °F /  13.8 °C 29.8in /  1010.7hPa SE 1.8mph /  2.9km/h   76% 0in /  0.0mm CLR
08:54 65.1 °F /  18.4 °C 57 °F /  13.9 °C 29.8in /  1010.7hPa ESE 1.8mph /  2.9km/h   75% 0in /  0.0mm CLR
08:59 66 °F /  18.9 °C 57 °F /  13.9 °C 29.8in /  1010.7hPa Calm   2mph /  3.2km/h 73% 0in /  0.0mm CLR
09:04 66.7 °F /  19.3 °C 57 °F /  13.9 °C 29.8in /  1010.6hPa Calm     71% 0in /  0.0mm CLR
09:09 66.7 °F /  19.3 °C 57 °F /  13.9 °C 29.8in /  1010.6hPa Calm     71% 0in /  0.0mm CLR
09:14 66.9 °F /  19.4 °C 56.8 °F /  13.8 °C 29.8in /  1010.6hPa Calm     70% 0in /  0.0mm CLR
09:19 66.9 °F /  19.4 °C 56.8 °F /  13.8 °C 29.8in /  1010.7hPa Calm     70% 0in /  0.0mm CLR
09:24 66.9 °F /  19.4 °C 56.5 °F /  13.6 °C 29.8in /  1010.7hPa Calm     69% 0in /  0.0mm CLR
09:29 66.7 °F /  19.3 °C 56.1 °F /  13.4 °C 29.8in /  1010.7hPa Calm   4.7mph /  7.6km/h 69% 0in /  0.0mm CLR
09:34 66.6 °F /  19.2 °C 55.8 °F /  13.2 °C 29.8in /  1010.6hPa Calm   4.6mph /  7.4km/h 68% 0in /  0.0mm CLR
09:39 66.6 °F /  19.2 °C 55.8 °F /  13.2 °C 29.8in /  1010.6hPa SSW 2.9mph /  4.7km/h 2mph /  3.2km/h 68% 0in /  0.0mm CLR
09:44 66.7 °F /  19.3 °C 55.8 °F /  13.2 °C 29.8in /  1010.6hPa SE 2.9mph /  4.7km/h 4.6mph /  7.4km/h 68% 0in /  0.0mm CLR
09:49 66.9 °F /  19.4 °C 55.6 °F /  13.1 °C 29.9in /  1010.8hPa SE 1.8mph /  2.9km/h 2.3mph /  3.7km/h 67% 0in /  0.0mm CLR
09:54 67.1 °F /  19.5 °C 56.1 °F /  13.4 °C 29.9in /  1010.8hPa West 1.8mph /  2.9km/h 2.4mph /  3.9km/h 68% 0in /  0.0mm CLR
09:59 67.3 °F /  19.6 °C 57.2 °F /  14.0 °C 29.9in /  1010.8hPa NNE 1.8mph /  2.9km/h 4.6mph /  7.4km/h 70% 0in /  0.0mm CLR
10:04 67.3 °F /  19.6 °C 57.2 °F /  14.0 °C 29.9in /  1010.8hPa NE 1.8mph /  2.9km/h 4.7mph /  7.6km/h 70% 0in /  0.0mm CLR
10:09 67.3 °F /  19.6 °C 57.2 °F /  14.0 °C 29.9in /  1010.8hPa NE 2.9mph /  4.7km/h 4.6mph /  7.4km/h 70% 0in /  0.0mm CLR
10:14 67.1 °F /  19.5 °C 57.4 °F /  14.1 °C 29.9in /  1010.8hPa ENE 2.9mph /  4.7km/h 4.7mph /  7.6km/h 71% 0in /  0.0mm CLR
10:19 67.3 °F /  19.6 °C 57.6 °F /  14.2 °C 29.9in /  1010.8hPa NE 3.1mph /  5.0km/h 4.6mph /  7.4km/h 71% 0in /  0.0mm CLR
10:24 67.3 °F /  19.6 °C 57.6 °F /  14.2 °C 29.9in /  1010.8hPa NE 3.1mph /  5.0km/h 5.2mph /  8.4km/h 71% 0in /  0.0mm CLR
10:29 67.5 °F /  19.7 °C 57.7 °F /  14.3 °C 29.9in /  1010.8hPa NNE 3.6mph /  5.8km/h 4.6mph /  7.4km/h 71% 0in /  0.0mm CLR
10:34 67.5 °F /  19.7 °C 57.7 °F /  14.3 °C 29.9in /  1010.9hPa NE 3.6mph /  5.8km/h 4.7mph /  7.6km/h 71% 0in /  0.0mm CLR
10:39 67.5 °F /  19.7 °C 57.4 °F /  14.1 °C 29.9in /  1010.9hPa NE 3.1mph /  5.0km/h 3.5mph /  5.6km/h 70% 0in /  0.0mm CLR
10:44 67.6 °F /  19.8 °C 57 °F /  13.9 °C 29.9in /  1010.9hPa NE 3.1mph /  5.0km/h 6.2mph /  10.0km/h 69% 0in /  0.0mm CLR
10:49 67.8 °F /  19.9 °C 57.4 °F /  14.1 °C 29.9in /  1010.9hPa NE 2.9mph /  4.7km/h 4.6mph /  7.4km/h 69% 0in /  0.0mm CLR
10:54 67.8 °F /  19.9 °C 57.4 °F /  14.1 °C 29.9in /  1010.9hPa NE 2.9mph /  4.7km/h 4.6mph /  7.4km/h 69% 0in /  0.0mm CLR
10:59 68.2 °F /  20.1 °C 57.6 °F /  14.2 °C 29.9in /  1010.9hPa NNE 2.9mph /  4.7km/h 4.6mph /  7.4km/h 69% 0in /  0.0mm CLR
11:04 68.2 °F /  20.1 °C 57.2 °F /  14.0 °C 29.9in /  1010.9hPa East 2.9mph /  4.7km/h 6.4mph /  10.3km/h 68% 0in /  0.0mm CLR
11:09 68.4 °F /  20.2 °C 57 °F /  13.9 °C 29.9in /  1010.9hPa NE 4.3mph /  6.9km/h 9.2mph /  14.8km/h 67% 0in /  0.0mm CLR
11:14 68.7 °F /  20.4 °C 56.5 °F /  13.6 °C 29.9in /  1010.9hPa NE 4.3mph /  6.9km/h 9.2mph /  14.8km/h 65% 0in /  0.0mm CLR
11:19 69.1 °F /  20.6 °C 56.5 °F /  13.6 °C 29.9in /  1010.9hPa NNE 6.2mph /  10.0km/h 8.1mph /  13.0km/h 64% 0in /  0.0mm CLR
11:24 69.4 °F /  20.8 °C 55.9 °F /  13.3 °C 29.9in /  1010.9hPa ENE 6.2mph /  10.0km/h 8.1mph /  13.0km/h 62% 0in /  0.0mm CLR
11:29 69.6 °F /  20.9 °C 55 °F /  12.8 °C 29.9in /  1010.9hPa North 6.2mph /  10.0km/h 12.7mph /  20.4km/h 60% 0in /  0.0mm CLR
11:34 70 °F /  21.1 °C 55.6 °F /  13.1 °C 29.9in /  1011.0hPa NE 6.2mph /  10.0km/h 15mph /  24.1km/h 60% 0in /  0.0mm CLR
11:39 69.8 °F /  21.0 °C 55.8 °F /  13.2 °C 29.9in /  1011.0hPa NNE 8.1mph /  13.0km/h 11.5mph /  18.5km/h 61% 0in /  0.0mm CLR
11:44 69.8 °F /  21.0 °C 55.8 °F /  13.2 °C 29.9in /  1011.0hPa ENE 8.1mph /  13.0km/h 13.8mph /  22.2km/h 61% 0in /  0.0mm CLR
11:49 70 °F /  21.1 °C 56.5 °F /  13.6 °C 29.9in /  1011.0hPa ENE 8.7mph /  14.0km/h 15mph /  24.1km/h 62% 0in /  0.0mm CLR
11:54 70.2 °F /  21.2 °C 57.4 °F /  14.1 °C 29.9in /  1011.0hPa NE 8.7mph /  14.0km/h 16.1mph /  25.9km/h 64% 0in /  0.0mm CLR
11:59 70.3 °F /  21.3 °C 57.9 °F /  14.4 °C 29.9in /  1011.0hPa NE 8.5mph /  13.7km/h 13.7mph /  22.0km/h 65% 0in /  0.0mm CLR
12:04 70.2 °F /  21.2 °C 57.7 °F /  14.3 °C 29.9in /  1011.3hPa ENE 8.5mph /  13.7km/h 17.3mph /  27.8km/h 65% 0in /  0.0mm CLR
12:09 70.3 °F /  21.3 °C 58.5 °F /  14.7 °C 29.9in /  1011.3hPa NE 10.7mph /  17.2km/h 12.7mph /  20.4km/h 66% 0in /  0.0mm CLR
12:14 70.5 °F /  21.4 °C 59 °F /  15.0 °C 29.9in /  1011.3hPa ENE 10.7mph /  17.2km/h 12.7mph /  20.4km/h 67% 0in /  0.0mm CLR
12:19 70.9 °F /  21.6 °C 60.6 °F /  15.9 °C 29.9in /  1011.2hPa NE 9.2mph /  14.8km/h 20.4mph /  32.8km/h 70% 0in /  0.0mm CLR
12:24 70.5 °F /  21.4 °C 61.2 °F /  16.2 °C 29.9in /  1011.2hPa NE 9.2mph /  14.8km/h 18.4mph /  29.6km/h 72% 0in /  0.0mm CLR
12:29 70.3 °F /  21.3 °C 61 °F /  16.1 °C 29.9in /  1011.2hPa NE 13mph /  20.9km/h 17.3mph /  27.8km/h 72% 0in /  0.0mm CLR
12:34 70.9 °F /  21.6 °C 61 °F /  16.1 °C 29.9in /  1011.3hPa East 13mph /  20.9km/h 11.5mph /  18.5km/h 71% 0in /  0.0mm CLR
12:39 71.1 °F /  21.7 °C 61.2 °F /  16.2 °C 29.9in /  1011.3hPa NE 9.7mph /  15.6km/h 15mph /  24.1km/h 71% 0in /  0.0mm CLR
12:44 70.9 °F /  21.6 °C 61.3 °F /  16.3 °C 29.9in /  1011.3hPa NE 9.7mph /  15.6km/h 19.6mph /  31.5km/h 72% 0in /  0.0mm CLR
12:49 70.7 °F /  21.5 °C 61.2 °F /  16.2 °C 29.9in /  1011.2hPa North 11.8mph /  19.0km/h 15mph /  24.1km/h 72% 0in /  0.0mm CLR
12:54 70.7 °F /  21.5 °C 61.2 °F /  16.2 °C 29.9in /  1011.2hPa NNE 11.8mph /  19.0km/h 16.1mph /  25.9km/h 72% 0in /  0.0mm CLR
12:59 71.1 °F /  21.7 °C 60.8 °F /  16.0 °C 29.9in /  1011.2hPa NE 10.7mph /  17.2km/h 16.1mph /  25.9km/h 70% 0in /  0.0mm CLR
13:04 71.2 °F /  21.8 °C 60.1 °F /  15.6 °C 29.9in /  1011.4hPa NE 10.7mph /  17.2km/h 19.2mph /  30.9km/h 68% 0in /  0.0mm CLR
13:09 71.1 °F /  21.7 °C 60.1 °F /  15.6 °C 29.9in /  1011.4hPa North 11.4mph /  18.3km/h 18.4mph /  29.6km/h 68% 0in /  0.0mm CLR
13:14 71.2 °F /  21.8 °C 59.7 °F /  15.4 °C 29.9in /  1011.4hPa North 11.4mph /  18.3km/h 18.4mph /  29.6km/h 67% 0in /  0.0mm CLR
13:19 71.4 °F /  21.9 °C 59.9 °F /  15.5 °C 29.9in /  1011.6hPa ENE 14mph /  22.5km/h 21.9mph /  35.2km/h 67% 0in /  0.0mm CLR
13:24 71.2 °F /  21.8 °C 59.7 °F /  15.4 °C 29.9in /  1011.6hPa NE 14mph /  22.5km/h 16.8mph /  27.0km/h 67% 0in /  0.0mm CLR
13:29 71.2 °F /  21.8 °C 60.1 °F /  15.6 °C 29.9in /  1011.6hPa North 12.5mph /  20.1km/h 15mph /  24.1km/h 68% 0in /  0.0mm CLR
13:34 71.8 °F /  22.1 °C 59.7 °F /  15.4 °C 29.9in /  1011.3hPa ENE 12.5mph /  20.1km/h 14mph /  22.5km/h 66% 0in /  0.0mm CLR
13:39 71.8 °F /  22.1 °C 58.8 °F /  14.9 °C 29.9in /  1011.3hPa NE 10.7mph /  17.2km/h 20.7mph /  33.3km/h 64% 0in /  0.0mm CLR
13:44 72.1 °F /  22.3 °C 58.8 °F /  14.9 °C 29.9in /  1011.3hPa NE 10.7mph /  17.2km/h 12.7mph /  20.4km/h 63% 0in /  0.0mm CLR
13:49 72.5 °F /  22.5 °C 59.2 °F /  15.1 °C 29.9in /  1011.1hPa NNE 10.7mph /  17.2km/h 13.8mph /  22.2km/h 63% 0in /  0.0mm CLR
13:54 72.9 °F /  22.7 °C 57.7 °F /  14.3 °C 29.9in /  1011.1hPa NE 10.7mph /  17.2km/h 16.1mph /  25.9km/h 59% 0in /  0.0mm CLR
13:59 72.9 °F /  22.7 °C 58.3 °F /  14.6 °C 29.9in /  1011.1hPa NE 10mph /  16.1km/h 15mph /  24.1km/h 60% 0in /  0.0mm CLR
14:04 73 °F /  22.8 °C 58.3 °F /  14.6 °C 29.9in /  1010.9hPa NE 10mph /  16.1km/h 18.4mph /  29.6km/h 60% 0in /  0.0mm CLR
14:09 73 °F /  22.8 °C 57.4 °F /  14.1 °C 29.9in /  1010.9hPa East 11.4mph /  18.3km/h 18.4mph /  29.6km/h 58% 0in /  0.0mm CLR
14:14 73 °F /  22.8 °C 56.8 °F /  13.8 °C 29.9in /  1010.9hPa ENE 11.4mph /  18.3km/h 16.1mph /  25.9km/h 57% 0in /  0.0mm CLR
14:19 73 °F /  22.8 °C 55.4 °F /  13.0 °C 29.9in /  1010.8hPa NE 11.4mph /  18.3km/h 15mph /  24.1km/h 54% 0in /  0.0mm CLR
14:24 73 °F /  22.8 °C 54.3 °F /  12.4 °C 29.9in /  1010.8hPa ENE 11.4mph /  18.3km/h 17.3mph /  27.8km/h 52% 0in /  0.0mm CLR
14:29 73.2 °F /  22.9 °C 54.5 °F /  12.5 °C 29.9in /  1010.8hPa ENE 11.8mph /  19.0km/h 17.3mph /  27.8km/h 52% 0in /  0.0mm CLR
14:34 73.9 °F /  23.3 °C 54.7 °F /  12.6 °C 29.8in /  1010.7hPa NNE 11.8mph /  19.0km/h 15mph /  24.1km/h 51% 0in /  0.0mm CLR
14:39 74.3 °F /  23.5 °C 54 °F /  12.2 °C 29.8in /  1010.7hPa NE 10.2mph /  16.4km/h 17.8mph /  28.6km/h 49% 0in /  0.0mm CLR
14:44 74.3 °F /  23.5 °C 54 °F /  12.2 °C 29.8in /  1010.7hPa East 10.2mph /  16.4km/h 19.6mph /  31.5km/h 49% 0in /  0.0mm CLR
14:49 74.1 °F /  23.4 °C 53.8 °F /  12.1 °C 29.8in /  1010.7hPa ENE 10.7mph /  17.2km/h 19.6mph /  31.5km/h 49% 0in /  0.0mm CLR
14:54 73.9 °F /  23.3 °C 52.3 °F /  11.3 °C 29.8in /  1010.7hPa NE 10.7mph /  17.2km/h 20.7mph /  33.3km/h 47% 0in /  0.0mm CLR
14:59 74.1 °F /  23.4 °C 53.2 °F /  11.8 °C 29.8in /  1010.7hPa NNE 12.3mph /  19.8km/h 12.7mph /  20.4km/h 48% 0in /  0.0mm CLR
15:04 74.3 °F /  23.5 °C 52.9 °F /  11.6 °C 29.8in /  1010.5hPa ENE 12.3mph /  19.8km/h 18.4mph /  29.6km/h 47% 0in /  0.0mm CLR
15:09 74.3 °F /  23.5 °C 53.2 °F /  11.8 °C 29.8in /  1010.5hPa NNE 10.2mph /  16.4km/h 16.1mph /  25.9km/h 48% 0in /  0.0mm CLR
15:14 74.3 °F /  23.5 °C 51.6 °F /  10.9 °C 29.8in /  1010.5hPa NE 10.2mph /  16.4km/h 20.7mph /  33.3km/h 45% 0in /  0.0mm CLR
15:19 74.7 °F /  23.7 °C 51.3 °F /  10.7 °C 29.8in /  1010.5hPa NE 12.3mph /  19.8km/h 24.8mph /  39.9km/h 44% 0in /  0.0mm CLR
15:24 74.3 °F /  23.5 °C 50.4 °F /  10.2 °C 29.8in /  1010.5hPa NE 12.3mph /  19.8km/h 26.5mph /  42.6km/h 43% 0in /  0.0mm CLR
15:29 74.5 °F /  23.6 °C 49.8 °F /  9.9 °C 29.8in /  1010.5hPa NE 15.6mph /  25.1km/h 20.7mph /  33.3km/h 42% 0in /  0.0mm CLR
15:34 74.8 °F /  23.8 °C 49.6 °F /  9.8 °C 29.8in /  1010.6hPa NE 15.6mph /  25.1km/h 12.7mph /  20.4km/h 41% 0in /  0.0mm CLR
15:39 74.8 °F /  23.8 °C 46.8 °F /  8.2 °C 29.8in /  1010.6hPa NE 13mph /  20.9km/h 20.7mph /  33.3km/h 37% 0in /  0.0mm CLR
15:44 74.1 °F /  23.4 °C 48.9 °F /  9.4 °C 29.8in /  1010.6hPa East 13mph /  20.9km/h 21.9mph /  35.2km/h 41% 0in /  0.0mm CLR
15:49 73.9 °F /  23.3 °C 49.5 °F /  9.7 °C 29.8in /  1010.7hPa NNE 15.6mph /  25.1km/h 26.5mph /  42.6km/h 42% 0in /  0.0mm CLR
15:54 73.8 °F /  23.2 °C 51.1 °F /  10.6 °C 29.8in /  1010.7hPa ENE 15.6mph /  25.1km/h 24.2mph /  38.9km/h 45% 0in /  0.0mm CLR
15:59 73.6 °F /  23.1 °C 49.6 °F /  9.8 °C 29.8in /  1010.7hPa ENE 17mph /  27.4km/h 24.2mph /  38.9km/h 43% 0in /  0.0mm CLR
16:04 73.2 °F /  22.9 °C 48.7 °F /  9.3 °C 29.8in /  1010.6hPa NE 17mph /  27.4km/h 26.1mph /  42.0km/h 42% 0in /  0.0mm CLR
16:09 73.2 °F /  22.9 °C 50 °F /  10.0 °C 29.8in /  1010.6hPa NNE 18.1mph /  29.1km/h 23mph /  37.0km/h 44% 0in /  0.0mm CLR
16:14 72.9 °F /  22.7 °C 50.4 °F /  10.2 °C 29.8in /  1010.6hPa NE 18.1mph /  29.1km/h 26.5mph /  42.6km/h 45% 0in /  0.0mm CLR
16:19 72.9 °F /  22.7 °C 50.4 °F /  10.2 °C 29.8in /  1010.6hPa East 16.3mph /  26.2km/h 21.9mph /  35.2km/h 45% 0in /  0.0mm CLR
16:24 72.7 °F /  22.6 °C 50.2 °F /  10.1 °C 29.8in /  1010.6hPa NNE 16.3mph /  26.2km/h 21.9mph /  35.2km/h 45% 0in /  0.0mm CLR
16:29 72 °F /  22.2 °C 49.5 °F /  9.7 °C 29.8in /  1010.6hPa NE 14.7mph /  23.7km/h 23mph /  37.0km/h 45% 0in /  0.0mm CLR
16:34 72 °F /  22.2 °C 50 °F /  10.0 °C 29.8in /  1010.6hPa East 14.7mph /  23.7km/h 20.7mph /  33.3km/h 46% 0in /  0.0mm CLR
16:39 72.5 °F /  22.5 °C 51.1 °F /  10.6 °C 29.8in /  1010.6hPa ENE 14.7mph /  23.7km/h 18.1mph /  29.1km/h 47% 0in /  0.0mm CLR
16:44 72.5 °F /  22.5 °C 52.2 °F /  11.2 °C 29.8in /  1010.6hPa ESE 14.7mph /  23.7km/h 20.4mph /  32.8km/h 49% 0in /  0.0mm CLR
16:49 72.7 °F /  22.6 °C 52.3 °F /  11.3 °C 29.9in /  1010.8hPa SE 11.8mph /  19.0km/h 19.6mph /  31.5km/h 49% 0in /  0.0mm CLR
16:54 72.9 °F /  22.7 °C 52 °F /  11.1 °C 29.9in /  1010.8hPa East 11.8mph /  19.0km/h 19mph /  30.6km/h 48% 0in /  0.0mm CLR
16:59 72.9 °F /  22.7 °C 52 °F /  11.1 °C 29.9in /  1010.8hPa NE 13mph /  20.9km/h 23mph /  37.0km/h 48% 0in /  0.0mm CLR
17:04 72.9 °F /  22.7 °C 50.9 °F /  10.5 °C 29.8in /  1010.7hPa ENE 13mph /  20.9km/h 20.7mph /  33.3km/h 46% 0in /  0.0mm CLR
17:09 72.3 °F /  22.4 °C 47.8 °F /  8.8 °C 29.8in /  1010.7hPa East 13mph /  20.9km/h 18.4mph /  29.6km/h 42% 0in /  0.0mm CLR
17:14 72.1 °F /  22.3 °C 48.4 °F /  9.1 °C 29.8in /  1010.7hPa NE 13mph /  20.9km/h 15mph /  24.1km/h 43% 0in /  0.0mm CLR
17:19 72 °F /  22.2 °C 48.9 °F /  9.4 °C 29.9in /  1010.8hPa NE 12.3mph /  19.8km/h 16.1mph /  25.9km/h 44% 0in /  0.0mm CLR
17:24 71.8 °F /  22.1 °C 47.5 °F /  8.6 °C 29.9in /  1010.8hPa NE 12.3mph /  19.8km/h 20.8mph /  33.5km/h 42% 0in /  0.0mm CLR
17:29 71.4 °F /  21.9 °C 46.6 °F /  8.1 °C 29.9in /  1010.8hPa NNE 12.5mph /  20.1km/h 18.4mph /  29.6km/h 41% 0in /  0.0mm CLR
17:34 71.2 °F /  21.8 °C 47.7 °F /  8.7 °C 29.9in /  1011.0hPa NNE 12.5mph /  20.1km/h 20.7mph /  33.3km/h 43% 0in /  0.0mm CLR
17:39 71.1 °F /  21.7 °C 46.8 °F /  8.2 °C 29.9in /  1011.0hPa ENE 13mph /  20.9km/h 19.6mph /  31.5km/h 42% 0in /  0.0mm CLR
17:44 70.9 °F /  21.6 °C 47.3 °F /  8.5 °C 29.9in /  1011.0hPa NE 13mph /  20.9km/h 25.3mph /  40.7km/h 43% 0in /  0.0mm CLR
17:49 70.5 °F /  21.4 °C 46.9 °F /  8.3 °C 29.8in /  1010.6hPa NE 14.5mph /  23.3km/h 18.4mph /  29.6km/h 43% 0in /  0.0mm CLR
17:54 70.3 °F /  21.3 °C 48.6 °F /  9.2 °C 29.8in /  1010.6hPa NE 14.5mph /  23.3km/h 21.9mph /  35.2km/h 46% 0in /  0.0mm CLR
17:59 70 °F /  21.1 °C 48.2 °F /  9.0 °C 29.8in /  1010.6hPa NE 11.8mph /  19.0km/h 21.9mph /  35.2km/h 46% 0in /  0.0mm CLR
18:04 69.6 °F /  20.9 °C 48.6 °F /  9.2 °C 29.8in /  1010.7hPa NE 11.8mph /  19.0km/h 21.3mph /  34.3km/h 47% 0in /  0.0mm CLR
18:09 69.4 °F /  20.8 °C 48.4 °F /  9.1 °C 29.8in /  1010.7hPa East 13.5mph /  21.7km/h 17.3mph /  27.8km/h 47% 0in /  0.0mm CLR
18:14 69.3 °F /  20.7 °C 48.7 °F /  9.3 °C 29.8in /  1010.7hPa NW 13.5mph /  21.7km/h 19.6mph /  31.5km/h 48% 0in /  0.0mm CLR
18:19 69.1 °F /  20.6 °C 49.6 °F /  9.8 °C 29.9in /  1011.2hPa North 13mph /  20.9km/h 21.9mph /  35.2km/h 50% 0in /  0.0mm CLR
18:24 68.9 °F /  20.5 °C 49.5 °F /  9.7 °C 29.9in /  1011.2hPa NE 13mph /  20.9km/h 16.1mph /  25.9km/h 50% 0in /  0.0mm CLR
18:29 68.9 °F /  20.5 °C 49.5 °F /  9.7 °C 29.9in /  1011.2hPa NE 12.3mph /  19.8km/h 21.9mph /  35.2km/h 50% 0in /  0.0mm CLR
18:34 68.7 °F /  20.4 °C 49.3 °F /  9.6 °C 29.9in /  1011.0hPa ENE 12.3mph /  19.8km/h 20.7mph /  33.3km/h 50% 0in /  0.0mm CLR
18:39 68.7 °F /  20.4 °C 49.8 °F /  9.9 °C 29.9in /  1011.0hPa ENE 14.5mph /  23.3km/h 17.3mph /  27.8km/h 51% 0in /  0.0mm CLR
18:44 68.5 °F /  20.3 °C 49.6 °F /  9.8 °C 29.9in /  1011.0hPa NE 14.5mph /  23.3km/h 18.4mph /  29.6km/h 51% 0in /  0.0mm CLR
18:49 68.5 °F /  20.3 °C 49.6 °F /  9.8 °C 29.9in /  1011.0hPa ESE 13mph /  20.9km/h 18.4mph /  29.6km/h 51% 0in /  0.0mm CLR
18:54 68.4 °F /  20.2 °C 50 °F /  10.0 °C 29.9in /  1011.0hPa NNE 13mph /  20.9km/h 20.7mph /  33.3km/h 52% 0in /  0.0mm CLR
18:59 68.4 °F /  20.2 °C 50.5 °F /  10.3 °C 29.9in /  1011.0hPa NNE 10.7mph /  17.2km/h 12.7mph /  20.4km/h 53% 0in /  0.0mm CLR
19:04 68.2 °F /  20.1 °C 50.4 °F /  10.2 °C 29.9in /  1011.7hPa NE 10.7mph /  17.2km/h 11.4mph /  18.3km/h 53% 0in /  0.0mm CLR
19:09 67.8 °F /  19.9 °C 49.5 °F /  9.7 °C 29.9in /  1011.7hPa NE 10mph /  16.1km/h 18.4mph /  29.6km/h 52% 0in /  0.0mm CLR
19:14 67.6 °F /  19.8 °C 49.8 °F /  9.9 °C 29.9in /  1011.7hPa NNE 10mph /  16.1km/h 19.6mph /  31.5km/h 53% 0in /  0.0mm CLR
19:19 67.5 °F /  19.7 °C 50.2 °F /  10.1 °C 29.9in /  1012.5hPa NE 13mph /  20.9km/h 17.3mph /  27.8km/h 54% 0in /  0.0mm CLR
19:24 67.3 °F /  19.6 °C 50.5 °F /  10.3 °C 29.9in /  1012.5hPa NE 13mph /  20.9km/h 12.7mph /  20.4km/h 55% 0in /  0.0mm CLR
19:29 66.9 °F /  19.4 °C 51.3 °F /  10.7 °C 29.9in /  1012.5hPa NNE 10mph /  16.1km/h 9.2mph /  14.8km/h 57% 0in /  0.0mm CLR
19:34 66.7 °F /  19.3 °C 52 °F /  11.1 °C 29.9in /  1012.9hPa NNE 10mph /  16.1km/h 9.2mph /  14.8km/h 59% 0in /  0.0mm CLR
19:39 66.4 °F /  19.1 °C 51.3 °F /  10.7 °C 29.9in /  1012.9hPa North 5.9mph /  9.5km/h 6.9mph /  11.1km/h 58% 0in /  0.0mm CLR
19:44 66 °F /  18.9 °C 51.3 °F /  10.7 °C 29.9in /  1012.9hPa North 5.9mph /  9.5km/h 5.8mph /  9.3km/h 59% 0.02in /  0.5mm RA
19:49 65.8 °F /  18.8 °C 52 °F /  11.1 °C 29.9in /  1013.4hPa NNW 3.6mph /  5.8km/h 4.7mph /  7.6km/h 61% 0.03in /  0.8mm RA
19:54 65.3 °F /  18.5 °C 52.9 °F /  11.6 °C 29.9in /  1013.4hPa NE 3.6mph /  5.8km/h 6.9mph /  11.1km/h 64% 0.04in /  1.0mm RA
19:59 64.6 °F /  18.1 °C 53.1 °F /  11.7 °C 29.9in /  1013.4hPa ENE 4mph /  6.4km/h 9.2mph /  14.8km/h 66% 0.05in /  1.3mm RA
20:04 63.7 °F /  17.6 °C 51.6 °F /  10.9 °C 29.9in /  1013.3hPa NNE 4mph /  6.4km/h 11.5mph /  18.5km/h 65% 0.06in /  1.5mm RA
20:09 63.1 °F /  17.3 °C 52 °F /  11.1 °C 29.9in /  1013.3hPa NE 7.4mph /  11.9km/h 11.5mph /  18.5km/h 67% 0.07in /  1.8mm RA
20:14 62.6 °F /  17.0 °C 52.7 °F /  11.5 °C 29.9in /  1013.3hPa East 7.4mph /  11.9km/h 11.5mph /  18.5km/h 70% 0.09in /  2.3mm RA
20:19 62.2 °F /  16.8 °C 53.4 °F /  11.9 °C 29.9in /  1012.2hPa NE 8.1mph /  13.0km/h 12.7mph /  20.4km/h 73% 0.11in /  2.8mm RA
20:24 61.9 °F /  16.6 °C 54 °F /  12.2 °C 29.9in /  1012.2hPa NE 8.1mph /  13.0km/h 8.1mph /  13.0km/h 75% 0.13in /  3.3mm RA
20:29 61.5 °F /  16.4 °C 53.2 °F /  11.8 °C 29.9in /  1012.2hPa NNE 6.2mph /  10.0km/h 10.7mph /  17.2km/h 74% 0.13in /  3.3mm RA
20:34 61.5 °F /  16.4 °C 52.9 °F /  11.6 °C 29.9in /  1012.4hPa NE 6.2mph /  10.0km/h 6.9mph /  11.1km/h 73% 0.13in /  3.3mm CLR
20:39 61.5 °F /  16.4 °C 52.9 °F /  11.6 °C 29.9in /  1012.4hPa NE 5.9mph /  9.5km/h 8.1mph /  13.0km/h 73% 0.13in /  3.3mm CLR
20:44 61.5 °F /  16.4 °C 52.9 °F /  11.6 °C 29.9in /  1012.4hPa NNW 5.9mph /  9.5km/h 8.1mph /  13.0km/h 73% 0.11in /  2.8mm CLR
20:49 61.5 °F /  16.4 °C 52 °F /  11.1 °C 29.9in /  1012.4hPa NE 4mph /  6.4km/h 5.8mph /  9.3km/h 71% 0.1in /  2.5mm CLR
20:54 61.7 °F /  16.5 °C 51.8 °F /  11.0 °C 29.9in /  1012.4hPa ENE 4mph /  6.4km/h 9.7mph /  15.6km/h 70% 0.09in /  2.3mm CLR
20:59 61.7 °F /  16.5 °C 52.2 °F /  11.2 °C 29.9in /  1012.4hPa NNE 4.7mph /  7.6km/h 6.9mph /  11.1km/h 71% 0.08in /  2.0mm CLR
21:04 61.9 °F /  16.6 °C 53.1 °F /  11.7 °C 29.9in /  1012.7hPa NNW 4.7mph /  7.6km/h 5.8mph /  9.3km/h 73% 0.07in /  1.8mm CLR
21:09 61.7 °F /  16.5 °C 53.2 °F /  11.8 °C 29.9in /  1012.7hPa NW 4mph /  6.4km/h 7.4mph /  11.9km/h 74% 0.06in /  1.5mm CLR
21:14 61.5 °F /  16.4 °C 53.4 °F /  11.9 °C 29.9in /  1012.7hPa WNW 4mph /  6.4km/h 6.9mph /  11.1km/h 75% 0.04in /  1.0mm CLR
21:19 61.5 °F /  16.4 °C 54 °F /  12.2 °C 29.9in /  1013.1hPa NW 4.7mph /  7.6km/h 5.8mph /  9.3km/h 76% 0.02in /  0.5mm CLR
21:24 61.3 °F /  16.3 °C 54.1 °F /  12.3 °C 29.9in /  1013.1hPa West 4.7mph /  7.6km/h 4.6mph /  7.4km/h 77% 0in /  0.0mm CLR
21:29 61.5 °F /  16.4 °C 54.1 °F /  12.3 °C 29.9in /  1013.1hPa WSW 3.1mph /  5.0km/h 4.6mph /  7.4km/h 77% 0in /  0.0mm CLR
21:34 61.5 °F /  16.4 °C 54 °F /  12.2 °C 29.9in /  1013.3hPa West 3.1mph /  5.0km/h 4.6mph /  7.4km/h 76% 0in /  0.0mm CLR
21:39 61.7 °F /  16.5 °C 53.8 °F /  12.1 °C 29.9in /  1013.3hPa West 2.9mph /  4.7km/h 5.2mph /  8.4km/h 75% 0in /  0.0mm CLR
21:44 61.9 °F /  16.6 °C 54 °F /  12.2 °C 29.9in /  1013.3hPa West 2.9mph /  4.7km/h 6.9mph /  11.1km/h 75% 0in /  0.0mm CLR
21:49 61.9 °F /  16.6 °C 54 °F /  12.2 °C 29.9in /  1013.5hPa WNW 4mph /  6.4km/h 5.4mph /  8.7km/h 75% 0in /  0.0mm CLR
21:54 61.9 °F /  16.6 °C 54 °F /  12.2 °C 29.9in /  1013.5hPa West 4mph /  6.4km/h 5.8mph /  9.3km/h 75% 0in /  0.0mm CLR
21:59 61.9 °F /  16.6 °C 54 °F /  12.2 °C 29.9in /  1013.5hPa NW 4mph /  6.4km/h 6.9mph /  11.1km/h 75% 0in /  0.0mm CLR
22:04 61.9 °F /  16.6 °C 53.4 °F /  11.9 °C 29.9in /  1013.7hPa WSW 4mph /  6.4km/h 4.7mph /  7.6km/h 74% 0in /  0.0mm CLR
22:09 62.1 °F /  16.7 °C 53.8 °F /  12.1 °C 29.9in /  1013.7hPa West 3.6mph /  5.8km/h 5.8mph /  9.3km/h 74% 0in /  0.0mm CLR
22:14 62.1 °F /  16.7 °C 53.8 °F /  12.1 °C 29.9in /  1013.7hPa SW 3.6mph /  5.8km/h 5.8mph /  9.3km/h 74% 0in /  0.0mm CLR
22:19 62.1 °F /  16.7 °C 53.2 °F /  11.8 °C 29.9in /  1013.8hPa West 3.1mph /  5.0km/h 6.9mph /  11.1km/h 73% 0in /  0.0mm CLR
22:24 62.2 °F /  16.8 °C 53.4 °F /  11.9 °C 29.9in /  1013.8hPa WNW 3.1mph /  5.0km/h 5.8mph /  9.3km/h 73% 0in /  0.0mm CLR
22:29 62.2 °F /  16.8 °C 53.1 °F /  11.7 °C 29.9in /  1013.8hPa WSW 3.1mph /  5.0km/h 4.6mph /  7.4km/h 72% 0in /  0.0mm CLR
22:34 62.2 °F /  16.8 °C 53.1 °F /  11.7 °C 29.9in /  1013.9hPa West 3.1mph /  5.0km/h 3.5mph /  5.6km/h 72% 0in /  0.0mm CLR
22:39 62.4 °F /  16.9 °C 53.6 °F /  12.0 °C 29.9in /  1013.9hPa West 2mph /  3.2km/h 4.6mph /  7.4km/h 73% 0in /  0.0mm CLR
22:44 62.4 °F /  16.9 °C 53.2 °F /  11.8 °C 29.9in /  1013.9hPa SW 2mph /  3.2km/h 4.6mph /  7.4km/h 72% 0in /  0.0mm CLR
22:49 62.4 °F /  16.9 °C 52.9 °F /  11.6 °C 29.9in /  1014.1hPa SW 3.1mph /  5.0km/h 4.6mph /  7.4km/h 71% 0in /  0.0mm CLR
22:54 62.4 °F /  16.9 °C 52.9 °F /  11.6 °C 29.9in /  1014.1hPa SW 3.1mph /  5.0km/h 4.7mph /  7.6km/h 71% 0in /  0.0mm CLR
22:59 62.6 °F /  17.0 °C 53.4 °F /  11.9 °C 29.9in /  1014.1hPa South 3.1mph /  5.0km/h 5.8mph /  9.3km/h 72% 0in /  0.0mm CLR
23:04 62.4 °F /  16.9 °C 54 °F /  12.2 °C 29.9in /  1014.1hPa South 3.1mph /  5.0km/h 5.8mph /  9.3km/h 74% 0in /  0.0mm CLR
23:09 62.1 °F /  16.7 °C 54 °F /  12.2 °C 29.9in /  1014.1hPa SSW 4.7mph /  7.6km/h 8.1mph /  13.0km/h 75% 0in /  0.0mm CLR
23:14 61.7 °F /  16.5 °C 54.1 °F /  12.3 °C 29.9in /  1014.1hPa SSW 4.7mph /  7.6km/h 8.1mph /  13.0km/h 76% 0in /  0.0mm CLR
23:19 61.5 °F /  16.4 °C 53.4 °F /  11.9 °C 29.9in /  1014.1hPa SSW 6.2mph /  10.0km/h 8.1mph /  13.0km/h 75% 0in /  0.0mm CLR
23:24 61.5 °F /  16.4 °C 53.4 °F /  11.9 °C 29.9in /  1014.1hPa South 6.2mph /  10.0km/h 9.2mph /  14.8km/h 75% 0in /  0.0mm CLR
23:29 61.5 °F /  16.4 °C 53.4 °F /  11.9 °C 29.9in /  1014.1hPa SSW 5.9mph /  9.5km/h 8.1mph /  13.0km/h 75% 0in /  0.0mm CLR
23:34 61.5 °F /  16.4 °C 53.2 °F /  11.8 °C 29.9in /  1014.0hPa SSW 5.9mph /  9.5km/h 6.9mph /  11.1km/h 74% 0in /  0.0mm CLR
23:39 61.5 °F /  16.4 °C 53.2 °F /  11.8 °C 29.9in /  1014.0hPa SW 5.2mph /  8.4km/h 6.9mph /  11.1km/h 74% 0in /  0.0mm CLR
23:44 61.5 °F /  16.4 °C 53.2 °F /  11.8 °C 29.9in /  1014.0hPa SSW 5.2mph /  8.4km/h 4.7mph /  7.6km/h 74% 0in /  0.0mm CLR
23:49 61.5 °F /  16.4 °C 52.9 °F /  11.6 °C 29.9in /  1014.1hPa SW 4.3mph /  6.9km/h 8.1mph /  13.0km/h 73% 0in /  0.0mm CLR
23:54 61.5 °F /  16.4 °C 52.9 °F /  11.6 °C 29.9in /  1014.1hPa SW 4.3mph /  6.9km/h 6.9mph /  11.1km/h 73% 0in /  0.0mm CLR
23:59 61.5 °F /  16.4 °C 52.9 °F /  11.6 °C 29.9in /  1014.1hPa WSW 4.3mph /  6.9km/h 8.1mph /  13.0km/h 73% 0in /  0.0mm CLR
Murcia-Puente Tocinos, España
Compliments of Weather Underground - 2.75 mb

La estación de MeteoMurcia.com, publica sus datos en los siguientes proyectos:

Weather Underground PWS IMURCIAP2 Meteoclimatic www.awekas.at

W3Counter
Web Analytics